ARG1681 SAZS-SABE
Flight info
| Callsign | ARG1681 |
|---|---|
| Flight time | N/A |
| Altitude | 37000 |
| Route | LIMAY2C LIMAY UW26 EGUNO UZ109 ISMIL UT655 ASADA ASADA9R |
| Aircraft | B738/M-MSDFGHILRVW/LB1 |
Departure
| Time | 2026-05-04 00:34 |
|---|---|
| Airport | Teniente Luis Candelaria International Airport (SAZS) |
Arrival
| Time | N/A |
|---|---|
| Airport | Aeroparque Jorge Newbery (SABE) |
| Time | Latitude | Longitude | Altitude | Speed | Heading |
|---|---|---|---|---|---|
| 2026-05-03 23:16 | -41.14654 | -71.16226 | 2748 ft | 0 kts | 69° |
| 2026-05-04 00:25 | -41.14661 | -71.16246 | 2748 ft | 4 kts | 30° |
| 2026-05-04 00:25 | -41.14681 | -71.16250 | 2749 ft | 2 kts | 347° |
| 2026-05-04 00:25 | -41.14706 | -71.16241 | 2751 ft | 4 kts | 344° |
| 2026-05-04 00:25 | -41.14727 | -71.16234 | 2748 ft | 4 kts | 341° |
| 2026-05-04 00:26 | -41.14749 | -71.16218 | 2749 ft | 2 kts | 317° |
| 2026-05-04 00:26 | -41.14765 | -71.16195 | 2748 ft | 4 kts | 292° |
| 2026-05-04 00:26 | -41.14771 | -71.16169 | 2750 ft | 0 kts | 289° |
| 2026-05-04 00:28 | -41.14770 | -71.16175 | 2749 ft | 2 kts | 289° |
| 2026-05-04 00:28 | -41.14773 | -71.16200 | 2749 ft | 3 kts | 226° |
| 2026-05-04 00:29 | -41.14800 | -71.16190 | 2750 ft | 7 kts | 134° |
| 2026-05-04 00:29 | -41.14836 | -71.16096 | 2748 ft | 14 kts | 115° |
| 2026-05-04 00:29 | -41.14875 | -71.15982 | 2748 ft | 13 kts | 114° |
| 2026-05-04 00:29 | -41.14913 | -71.15874 | 2748 ft | 13 kts | 115° |
| 2026-05-04 00:30 | -41.14951 | -71.15768 | 2748 ft | 13 kts | 115° |
| 2026-05-04 00:30 | -41.14988 | -71.15664 | 2748 ft | 12 kts | 115° |
| 2026-05-04 00:30 | -41.15023 | -71.15563 | 2748 ft | 12 kts | 115° |
| 2026-05-04 00:30 | -41.15057 | -71.15465 | 2749 ft | 12 kts | 114° |
| 2026-05-04 00:31 | -41.15091 | -71.15367 | 2748 ft | 12 kts | 114° |
| 2026-05-04 00:31 | -41.15130 | -71.15255 | 2749 ft | 15 kts | 114° |
| 2026-05-04 00:31 | -41.15175 | -71.15126 | 2748 ft | 16 kts | 115° |
| 2026-05-04 00:31 | -41.15220 | -71.14998 | 2748 ft | 15 kts | 115° |
| 2026-05-04 00:32 | -41.15262 | -71.14875 | 2748 ft | 14 kts | 115° |
| 2026-05-04 00:32 | -41.15303 | -71.14758 | 2749 ft | 14 kts | 115° |
| 2026-05-04 00:32 | -41.15343 | -71.14646 | 2749 ft | 13 kts | 115° |
| 2026-05-04 00:32 | -41.15380 | -71.14538 | 2748 ft | 13 kts | 115° |
| 2026-05-04 00:33 | -41.15440 | -71.14468 | 2748 ft | 12 kts | 190° |
| 2026-05-04 00:33 | -41.15536 | -71.14532 | 2748 ft | 3 kts | 218° |
| 2026-05-04 00:33 | -41.15531 | -71.14566 | 2748 ft | 5 kts | 294° |
| 2026-05-04 00:34 | -41.15444 | -71.14816 | 2749 ft | 64 kts | 295° |
| 2026-05-04 00:34 | -41.15164 | -71.15619 | 2753 ft | 125 kts | 295° |
| 2026-05-04 00:34 | -41.14772 | -71.16745 | 3247 ft | 140 kts | 294° |
| 2026-05-04 00:34 | -41.14373 | -71.17932 | 4040 ft | 142 kts | 294° |
| 2026-05-04 00:35 | -41.13949 | -71.19199 | 4599 ft | 161 kts | 292° |
| 2026-05-04 00:35 | -41.13469 | -71.20619 | 5052 ft | 175 kts | 291° |
| 2026-05-04 00:35 | -41.12947 | -71.22156 | 5412 ft | 192 kts | 291° |
| 2026-05-04 00:35 | -41.12381 | -71.23853 | 5839 ft | 207 kts | 290° |
| 2026-05-04 00:36 | -41.11773 | -71.25676 | 6378 ft | 223 kts | 291° |
| 2026-05-04 00:36 | -41.11143 | -71.27534 | 7362 ft | 215 kts | 291° |
| 2026-05-04 00:36 | -41.10547 | -71.29278 | 8447 ft | 208 kts | 290° |
| 2026-05-04 00:36 | -41.09947 | -71.31042 | 9221 ft | 213 kts | 289° |
| 2026-05-04 00:37 | -41.09333 | -71.32851 | 9979 ft | 217 kts | 289° |
| 2026-05-04 00:37 | -41.08709 | -71.34686 | 10710 ft | 220 kts | 289° |
| 2026-05-04 00:37 | -41.07869 | -71.36419 | 11374 ft | 234 kts | 307° |
| 2026-05-04 00:37 | -41.06542 | -71.37768 | 12074 ft | 248 kts | 321° |
| 2026-05-04 00:38 | -41.04870 | -71.38605 | 12767 ft | 268 kts | 339° |
| 2026-05-04 00:38 | -41.02938 | -71.38649 | 13473 ft | 291 kts | 1° |
| 2026-05-04 00:38 | -41.00990 | -71.37622 | 14112 ft | 316 kts | 28° |
| 2026-05-04 00:38 | -40.99425 | -71.35489 | 14750 ft | 333 kts | 54° |
| 2026-05-04 00:39 | -40.98559 | -71.32615 | 15310 ft | 342 kts | 81° |
| 2026-05-04 00:39 | -40.98620 | -71.29513 | 15931 ft | 343 kts | 105° |
| 2026-05-04 00:39 | -40.99108 | -71.26407 | 16544 ft | 348 kts | 99° |
| 2026-05-04 00:39 | -40.99157 | -71.23186 | 17069 ft | 355 kts | 82° |
| 2026-05-04 00:40 | -40.98594 | -71.19999 | 17715 ft | 356 kts | 67° |
| 2026-05-04 00:40 | -40.97592 | -71.16956 | 18328 ft | 357 kts | 59° |
| 2026-05-04 00:40 | -40.96437 | -71.14101 | 18847 ft | 358 kts | 56° |
| 2026-05-04 00:40 | -40.95213 | -71.11212 | 19396 ft | 362 kts | 56° |
| 2026-05-04 00:41 | -40.93959 | -71.08264 | 19728 ft | 375 kts | 56° |
| 2026-05-04 00:41 | -40.92658 | -71.05174 | 19836 ft | 393 kts | 57° |
| 2026-05-04 00:41 | -40.91305 | -71.01939 | 19989 ft | 411 kts | 57° |
| 2026-05-04 00:41 | -40.89899 | -70.98566 | 20120 ft | 429 kts | 57° |
| 2026-05-04 00:42 | -40.88461 | -70.95108 | 20372 ft | 441 kts | 57° |
| 2026-05-04 00:42 | -40.86984 | -70.91604 | 20841 ft | 445 kts | 56° |
| 2026-05-04 00:42 | -40.85424 | -70.88230 | 21405 ft | 446 kts | 53° |
| 2026-05-04 00:42 | -40.83763 | -70.84833 | 21985 ft | 445 kts | 53° |
| 2026-05-04 00:43 | -40.82076 | -70.81452 | 22570 ft | 447 kts | 52° |
| 2026-05-04 00:43 | -40.80378 | -70.78060 | 23038 ft | 452 kts | 53° |
| 2026-05-04 00:43 | -40.78671 | -70.74636 | 23459 ft | 457 kts | 53° |
| 2026-05-04 00:43 | -40.76955 | -70.71171 | 23873 ft | 460 kts | 53° |
| 2026-05-04 00:44 | -40.75248 | -70.67707 | 24279 ft | 462 kts | 53° |
| 2026-05-04 00:44 | -40.73528 | -70.64206 | 24791 ft | 462 kts | 53° |
| 2026-05-04 00:44 | -40.71802 | -70.60687 | 25191 ft | 466 kts | 53° |
| 2026-05-04 00:44 | -40.70062 | -70.57141 | 25518 ft | 471 kts | 53° |
| 2026-05-04 00:45 | -40.68870 | -70.54713 | 25764 ft | 474 kts | 53° |
| 2026-05-04 00:45 | -40.67121 | -70.51156 | 26078 ft | 479 kts | 53° |
| 2026-05-04 00:45 | -40.65325 | -70.47508 | 26335 ft | 485 kts | 53° |
| 2026-05-04 00:45 | -40.63501 | -70.43805 | 26691 ft | 488 kts | 53° |
| 2026-05-04 00:46 | -40.61676 | -70.40104 | 27123 ft | 490 kts | 53° |
| 2026-05-04 00:46 | -40.59849 | -70.36404 | 27524 ft | 492 kts | 53° |
| 2026-05-04 00:46 | -40.58008 | -70.32679 | 27871 ft | 495 kts | 53° |
| 2026-05-04 00:46 | -40.56143 | -70.28912 | 28187 ft | 499 kts | 53° |
| 2026-05-04 00:47 | -40.54270 | -70.25135 | 28502 ft | 502 kts | 53° |
| 2026-05-04 00:47 | -40.52384 | -70.21337 | 28828 ft | 504 kts | 53° |
| 2026-05-04 00:47 | -40.50493 | -70.17533 | 29164 ft | 507 kts | 52° |
| 2026-05-04 00:47 | -40.48588 | -70.13703 | 29462 ft | 510 kts | 52° |
| 2026-05-04 00:48 | -40.46658 | -70.09831 | 29753 ft | 513 kts | 52° |
| 2026-05-04 00:48 | -40.44727 | -70.05960 | 30037 ft | 516 kts | 52° |
| 2026-05-04 00:48 | -40.42785 | -70.02073 | 30284 ft | 517 kts | 52° |
| 2026-05-04 00:48 | -40.40843 | -69.98185 | 30698 ft | 515 kts | 52° |
| 2026-05-04 00:49 | -40.38898 | -69.94300 | 30939 ft | 518 kts | 52° |
| 2026-05-04 00:49 | -40.36968 | -69.90451 | 31121 ft | 521 kts | 52° |
| 2026-05-04 00:49 | -40.34997 | -69.86526 | 31313 ft | 524 kts | 52° |
| 2026-05-04 00:49 | -40.33019 | -69.82592 | 31581 ft | 525 kts | 52° |
| 2026-05-04 00:50 | -40.31029 | -69.78637 | 31921 ft | 524 kts | 52° |
| 2026-05-04 00:50 | -40.29057 | -69.74720 | 32239 ft | 524 kts | 52° |
| 2026-05-04 00:50 | -40.27080 | -69.70800 | 32507 ft | 525 kts | 52° |
| 2026-05-04 00:50 | -40.25097 | -69.66876 | 32780 ft | 526 kts | 52° |
| 2026-05-04 00:51 | -40.23105 | -69.62936 | 33084 ft | 525 kts | 52° |
| 2026-05-04 00:51 | -40.21116 | -69.59007 | 33389 ft | 525 kts | 52° |
| 2026-05-04 00:51 | -40.19126 | -69.55084 | 33627 ft | 526 kts | 52° |
| 2026-05-04 00:51 | -40.17129 | -69.51151 | 33866 ft | 527 kts | 52° |
| 2026-05-04 00:52 | -40.15135 | -69.47227 | 34178 ft | 525 kts | 52° |
| 2026-05-04 00:52 | -40.13142 | -69.43309 | 34467 ft | 523 kts | 52° |
| 2026-05-04 00:52 | -40.11184 | -69.39466 | 34695 ft | 524 kts | 52° |
| 2026-05-04 00:52 | -40.09166 | -69.35511 | 34820 ft | 526 kts | 51° |
| 2026-05-04 00:53 | -40.07155 | -69.31579 | 34931 ft | 529 kts | 51° |
| 2026-05-04 00:53 | -40.05169 | -69.27699 | 35168 ft | 528 kts | 51° |
| 2026-05-04 00:53 | -40.03165 | -69.23784 | 35477 ft | 526 kts | 51° |
| 2026-05-04 00:53 | -40.01166 | -69.19883 | 35759 ft | 525 kts | 51° |
| 2026-05-04 00:54 | -39.99155 | -69.15964 | 35984 ft | 524 kts | 52° |
| 2026-05-04 00:54 | -39.97163 | -69.12090 | 36241 ft | 524 kts | 52° |
| 2026-05-04 00:54 | -39.95169 | -69.08215 | 36475 ft | 523 kts | 51° |
| 2026-05-04 00:54 | -39.93177 | -69.04348 | 36681 ft | 523 kts | 51° |
| 2026-05-04 00:55 | -39.91169 | -69.00458 | 36853 ft | 523 kts | 51° |
| 2026-05-04 00:55 | -39.87142 | -68.92672 | 36859 ft | 527 kts | 51° |
| 2026-05-04 00:56 | -39.83111 | -68.84892 | 36838 ft | 524 kts | 51° |
| 2026-05-04 00:56 | -39.79130 | -68.77222 | 36844 ft | 520 kts | 51° |
| 2026-05-04 00:57 | -39.75141 | -68.69561 | 36844 ft | 518 kts | 51° |
| 2026-05-04 00:57 | -39.71134 | -68.61890 | 36857 ft | 525 kts | 51° |
| 2026-05-04 00:58 | -39.67073 | -68.54137 | 36840 ft | 529 kts | 51° |
| 2026-05-04 00:58 | -39.62977 | -68.46326 | 36836 ft | 532 kts | 51° |
| 2026-05-04 00:59 | -39.58874 | -68.38520 | 36836 ft | 532 kts | 51° |
| 2026-05-04 00:59 | -39.54755 | -68.30704 | 36831 ft | 533 kts | 51° |
| 2026-05-04 01:00 | -39.50639 | -68.22912 | 36837 ft | 532 kts | 51° |
| 2026-05-04 01:00 | -39.46517 | -68.15131 | 36843 ft | 531 kts | 51° |
| 2026-05-04 01:01 | -39.42401 | -68.07379 | 36812 ft | 529 kts | 51° |
| 2026-05-04 01:01 | -39.38294 | -67.99663 | 36828 ft | 528 kts | 51° |
| 2026-05-04 01:02 | -39.34225 | -67.92038 | 36845 ft | 527 kts | 51° |
| 2026-05-04 01:02 | -39.30129 | -67.84381 | 36842 ft | 526 kts | 51° |
| 2026-05-04 01:03 | -39.26049 | -67.76771 | 36845 ft | 526 kts | 50° |
| 2026-05-04 01:03 | -39.21941 | -67.69127 | 36846 ft | 526 kts | 50° |
| 2026-05-04 01:04 | -39.17835 | -67.61505 | 36850 ft | 526 kts | 50° |
| 2026-05-04 01:04 | -39.13709 | -67.53866 | 36840 ft | 527 kts | 50° |
| 2026-05-04 01:05 | -39.09582 | -67.46240 | 36802 ft | 528 kts | 50° |
| 2026-05-04 01:05 | -39.05435 | -67.38597 | 36844 ft | 528 kts | 50° |
| 2026-05-04 01:06 | -39.01298 | -67.30991 | 36859 ft | 530 kts | 50° |
| 2026-05-04 01:06 | -38.97122 | -67.23332 | 36849 ft | 532 kts | 50° |
| 2026-05-04 01:07 | -38.92960 | -67.15715 | 36861 ft | 533 kts | 50° |
| 2026-05-04 01:07 | -38.88748 | -67.08025 | 36859 ft | 535 kts | 50° |
| 2026-05-04 01:08 | -38.84571 | -67.00416 | 36855 ft | 535 kts | 50° |
| 2026-05-04 01:08 | -38.80340 | -66.92727 | 36854 ft | 536 kts | 50° |
| 2026-05-04 01:09 | -38.76105 | -66.85048 | 36858 ft | 535 kts | 50° |
| 2026-05-04 01:09 | -38.71859 | -66.77369 | 36850 ft | 534 kts | 50° |
| 2026-05-04 01:10 | -38.67632 | -66.69742 | 36857 ft | 533 kts | 50° |
| 2026-05-04 01:10 | -38.63521 | -66.62342 | 36859 ft | 531 kts | 50° |
| 2026-05-04 01:11 | -38.59309 | -66.54777 | 36852 ft | 530 kts | 50° |
| 2026-05-04 01:11 | -38.55095 | -66.47228 | 36854 ft | 529 kts | 49° |
| 2026-05-04 01:12 | -38.50888 | -66.39707 | 36857 ft | 528 kts | 49° |
| 2026-05-04 01:12 | -38.46697 | -66.32232 | 36863 ft | 527 kts | 49° |
| 2026-05-04 01:13 | -38.42496 | -66.24759 | 36823 ft | 527 kts | 49° |
| 2026-05-04 01:13 | -38.38279 | -66.17273 | 36870 ft | 526 kts | 49° |
| 2026-05-04 01:14 | -38.34070 | -66.09819 | 36875 ft | 528 kts | 49° |
| 2026-05-04 01:14 | -38.29827 | -66.02323 | 36870 ft | 530 kts | 49° |
| 2026-05-04 01:15 | -38.25572 | -65.94820 | 36857 ft | 532 kts | 49° |
| 2026-05-04 01:15 | -38.21294 | -65.87295 | 36862 ft | 534 kts | 49° |
| 2026-05-04 01:16 | -38.17017 | -65.79789 | 36866 ft | 535 kts | 49° |
| 2026-05-04 01:16 | -38.12712 | -65.72249 | 36859 ft | 536 kts | 49° |
| 2026-05-04 01:17 | -38.08383 | -65.64688 | 36886 ft | 540 kts | 49° |
| 2026-05-04 01:17 | -38.03997 | -65.57049 | 36861 ft | 547 kts | 49° |
| 2026-05-04 01:18 | -37.99547 | -65.49312 | 36877 ft | 554 kts | 49° |
| 2026-05-04 01:18 | -37.95046 | -65.41503 | 36879 ft | 559 kts | 49° |
| 2026-05-04 01:19 | -37.90517 | -65.33661 | 36880 ft | 562 kts | 49° |
| 2026-05-04 01:19 | -37.85965 | -65.25800 | 36881 ft | 564 kts | 49° |
| 2026-05-04 01:20 | -37.81393 | -65.17922 | 36876 ft | 564 kts | 49° |
| 2026-05-04 01:20 | -37.76818 | -65.10060 | 36882 ft | 564 kts | 49° |
| 2026-05-04 01:21 | -37.72230 | -65.02194 | 36829 ft | 563 kts | 49° |